Time;durP1;ratioP1;P1;durP2;ratioP2;P2;SDS_P1;SDS_P2;PMS_P1;PMS_P2;Temp;Humidity;BMP_temperature;BMP_pressure;BME280_temperature;BME280_humidity;BME280_pressure;Samples;Min_cycle;Max_cycle;Signal;HPM_P1;HPM_P2
2022/01/16 00:10:44;;;;;;;;;;;;;;;;;;;;;
2022/01/16 00:35:16;;;;;;;;;;;;;;;;;;;;;
2022/01/16 00:45:21;;;;;;;247.47;33.00;;;;;;;-3.00;100.00;96179.63;5694625;25;20213;-84
2022/01/16 01:04:32;;;;;;;596.37;48.20;;;;;;;-3.02;100.00;96176.28;6164134;23;20183;-83
2022/01/16 01:51:51;;;;;;;124.43;23.47;;;;;;;-3.04;100.00;96166.16;6014108;23;20182;-81
2022/01/16 03:00:39;;;;;;;;;;;;;;;;;;;;;
2022/01/16 03:03:46;;;;;;;34.90;17.80;;;;;;;-3.77;100.00;96125.34;6017730;23;20182;-82
2022/01/16 03:06:46;;;;;;;29.47;15.60;;;;;;;-3.81;100.00;96127.13;6018147;23;20595;-83
2022/01/16 03:13:20;;;;;;;24.03;14.80;;;;;;;-3.84;100.00;96124.69;5921140;24;20185;-83
2022/01/16 03:15:59;;;;;;;28.17;15.97;;;;;;;-3.87;100.00;96116.34;5912368;24;20164;-82
2022/01/16 03:23:54;;;;;;;28.73;16.17;;;;;;;-3.90;100.00;96111.34;5916535;24;20167;-82
2022/01/16 03:26:27;;;;;;;27.67;15.50;;;;;;;-3.84;100.00;96104.41;5915039;24;20230;-82
2022/01/16 03:29:08;;;;;;;22.70;15.13;;;;;;;-3.92;100.00;96103.78;5912989;24;20189;-82
2022/01/16 03:31:39;;;;;;;25.13;15.80;;;;;;;-3.92;100.00;96103.78;5916815;24;20193;-82
2022/01/16 03:34:07;;;;;;;25.33;16.50;;;;;;;-3.88;100.00;96100.31;5913275;24;20565;-82
2022/01/16 03:36:35;;;;;;;25.97;15.57;;;;;;;-3.96;100.00;96116.63;5914616;24;20161;-81
2022/01/16 03:39:01;;;;;;;28.33;16.13;;;;;;;-4.12;100.00;96123.88;5914355;24;20221;-81
2022/01/16 03:41:27;;;;;;;32.27;16.90;;;;;;;-4.08;100.00;96122.88;5915087;24;20208;-82
2022/01/16 03:44:02;;;;;;;41.97;17.03;;;;;;;-4.07;100.00;96127.09;5915010;24;20223;-82
2022/01/16 03:46:41;;;;;;;36.57;17.60;;;;;;;-4.07;100.00;96138.06;5894390;24;20186;-81
2022/01/16 03:49:15;;;;;;;70.83;17.37;;;;;;;-4.22;100.00;96135.16;6010342;23;20180;-81
2022/01/16 03:51:42;;;;;;;29.70;17.47;;;;;;;-4.11;100.00;96133.13;6114192;23;20162;-83
2022/01/16 03:54:13;;;;;;;30.07;17.13;;;;;;;-3.95;100.00;96134.34;6091662;23;20190;-81
2022/01/16 03:56:39;;;;;;;29.80;17.70;;;;;;;-3.92;100.00;96139.31;6114708;23;20197;-83
2022/01/16 03:59:05;;;;;;;36.73;16.97;;;;;;;-3.95;100.00;96139.41;6116165;23;20172;-83
2022/01/16 04:01:31;;;;;;;37.60;17.53;;;;;;;-3.97;100.00;96138.66;6114109;23;20344;-81
2022/01/16 04:03:56;;;;;;;198.77;23.17;;;;;;;-4.04;100.00;96127.84;6091982;23;20160;-82
2022/01/16 04:06:22;;;;;;;75.77;20.27;;;;;;;-3.86;100.00;96131.53;6118236;23;20181;-82
2022/01/16 04:08:53;;;;;;;60.10;18.53;;;;;;;-3.92;100.00;96134.25;6116957;23;20183;-82
2022/01/16 04:11:18;;;;;;;75.90;16.10;;;;;;;-3.90;100.00;96132.47;6119356;23;20160;-82
2022/01/16 04:13:51;;;;;;;229.17;24.00;;;;;;;-4.18;100.00;96121.50;6097851;23;20334;-82
2022/01/16 04:16:17;;;;;;;51.23;19.53;;;;;;;-4.11;100.00;96123.00;6099522;23;20183;-82
2022/01/16 04:18:50;;;;;;;41.13;16.90;;;;;;;-4.11;100.00;96131.44;6121426;23;20179;-81
2022/01/16 04:21:16;;;;;;;30.07;16.60;;;;;;;-4.05;100.00;96128.72;6122367;23;20191;-81
2022/01/16 04:23:41;;;;;;;51.50;17.60;;;;;;;-4.13;100.00;96127.28;6095351;23;20167;-82
2022/01/16 04:26:06;;;;;;;53.70;17.30;;;;;;;-4.11;100.00;96125.53;6087385;23;20180;-82
2022/01/16 04:28:32;;;;;;;35.80;18.30;;;;;;;-4.13;100.00;96120.50;6086471;23;20184;-83
2022/01/16 04:30:57;;;;;;;28.10;16.50;;;;;;;-4.31;100.00;96126.94;6110501;23;20170;-82
2022/01/16 04:33:23;;;;;;;27.27;16.87;;;;;;;-4.33;100.00;96125.31;6109377;23;20180;-83
2022/01/16 04:35:48;;;;;;;26.33;15.90;;;;;;;-4.29;100.00;96122.66;6085582;23;20159;-82
2022/01/16 04:38:13;;;;;;;27.97;16.33;;;;;;;-4.25;100.00;96128.44;6085670;23;20183;-81
2022/01/16 04:43:47;;;;;;;24.77;15.83;;;;;;;-4.29;100.00;96125.19;6085094;23;20164;-80
2022/01/16 04:46:11;;;;;;;24.67;16.23;;;;;;;-4.29;100.00;96132.78;6134357;23;20215;-80
2022/01/16 04:48:36;;;;;;;25.17;14.87;;;;;;;-4.26;100.00;96126.78;6107809;23;20208;-82
2022/01/16 04:51:01;;;;;;;36.07;16.33;;;;;;;-4.24;100.00;96130.13;6107841;23;20190;-81
2022/01/16 04:53:27;;;;;;;72.40;19.00;;;;;;;-4.25;100.00;96146.19;6107156;23;20160;-80
2022/01/16 04:55:52;;;;;;;194.70;24.20;;;;;;;-4.24;100.00;96136.88;6083702;23;20188;-80
2022/01/16 04:58:20;;;;;;;212.83;26.63;;;;;;;-4.25;100.00;96130.16;6108288;23;20184;-82
2022/01/16 05:00:45;;;;;;;472.27;35.60;;;;;;;-4.29;100.00;96130.25;6084577;23;20161;-81
2022/01/16 05:03:11;;;;;;;543.07;42.40;;;;;;;-4.36;100.00;96130.47;6107647;23;20265;-79
2022/01/16 05:05:36;;;;;;;222.63;26.93;;;;;;;-4.30;100.00;96126.06;6083858;23;20180;-81
2022/01/16 05:08:01;;;;;;;172.80;23.63;;;;;;;-4.19;100.00;96122.38;6084064;23;20630;-82
2022/01/16 05:10:27;;;;;;;78.17;19.50;;;;;;;-4.16;100.00;96112.13;6083356;23;20184;-82
2022/01/16 05:12:53;;;;;;;195.20;24.07;;;;;;;-4.19;100.00;96115.59;6082105;23;20576;-81
2022/01/16 05:18:03;;;;;;;363.43;36.57;;;;;;;-4.24;100.00;96114.06;6111363;23;20230;-80
2022/01/16 05:20:28;;;;;;;418.47;33.33;;;;;;;-4.49;100.00;96121.56;6132871;23;20543;-80
2022/01/16 05:22:53;;;;;;;296.17;27.80;;;;;;;-4.45;100.00;96121.41;6081436;23;20530;-81
2022/01/16 05:25:19;;;;;;;251.83;27.80;;;;;;;-4.42;100.00;96113.72;6081058;23;20184;-80
2022/01/16 05:27:45;;;;;;;161.43;24.87;;;;;;;-4.37;100.00;96128.81;6082048;23;20649;-79
2022/01/16 05:30:11;;;;;;;94.67;21.87;;;;;;;-4.36;100.00;96121.16;6105797;23;20166;-80
2022/01/16 05:32:36;;;;;;;74.27;21.07;;;;;;;-4.28;100.00;96131.91;6104457;23;20498;-80
2022/01/16 05:35:02;;;;;;;67.67;18.93;;;;;;;-4.27;100.00;96127.66;6105157;23;20152;-80
2022/01/16 05:37:27;;;;;;;156.77;25.73;;;;;;;-4.36;100.00;96128.75;6104482;23;20274;-81
2022/01/16 05:39:55;;;;;;;99.93;22.20;;;;;;;-4.22;100.00;96137.69;6132186;23;20160;-79
2022/01/16 05:42:21;;;;;;;346.63;34.33;;;;;;;-4.34;100.00;96136.31;6107054;23;20152;-80
2022/01/16 05:44:46;;;;;;;304.87;31.33;;;;;;;-4.39;100.00;96133.94;6082474;23;20211;-81
2022/01/16 05:47:12;;;;;;;189.87;26.03;;;;;;;-4.41;100.00;96135.69;6129283;23;20235;-80
2022/01/16 05:49:40;;;;;;;55.83;19.27;;;;;;;-4.46;100.00;96134.97;6081086;23;20167;-81
2022/01/16 05:52:06;;;;;;;28.53;16.87;;;;;;;-4.45;100.00;96129.03;6103795;23;20171;-81
2022/01/16 05:54:31;;;;;;;33.30;18.43;;;;;;;-4.39;100.00;96130.56;6102555;23;20160;-82
2022/01/16 05:56:56;;;;;;;34.47;18.30;;;;;;;-4.39;100.00;96136.47;6104146;23;20155;-80
2022/01/16 05:59:21;;;;;;;30.93;17.40;;;;;;;-4.39;100.00;96138.19;6104896;23;20136;-80
2022/01/16 06:01:47;;;;;;;29.37;17.37;;;;;;;-4.35;100.00;96130.41;6080897;23;20619;-80
2022/01/16 06:04:12;;;;;;;29.80;18.90;;;;;;;-4.34;100.00;96137.16;6106434;23;20602;-81
2022/01/16 06:06:37;;;;;;;28.13;17.07;;;;;;;-4.27;100.00;96135.28;6106709;23;20251;-80
2022/01/16 06:09:03;;;;;;;29.40;17.47;;;;;;;-4.24;100.00;96130.13;6109154;23;20172;-81
2022/01/16 06:11:28;;;;;;;24.10;16.13;;;;;;;-4.20;100.00;96133.41;6107923;23;20303;-82
2022/01/16 06:13:53;;;;;;;26.37;15.10;;;;;;;-4.29;100.00;96139.56;6084188;23;20156;-80
2022/01/16 06:16:18;;;;;;;27.70;16.17;;;;;;;-4.45;100.00;96143.41;6108713;23;20547;-82
2022/01/16 06:18:44;;;;;;;25.30;16.50;;;;;;;-4.61;100.00;96153.13;6108111;23;20176;-81
2022/01/16 06:21:09;;;;;;;25.20;16.30;;;;;;;-4.61;100.00;96150.59;6082662;23;20168;-82
2022/01/16 06:23:34;;;;;;;24.10;15.70;;;;;;;-4.67;100.00;96154.16;6109331;23;20156;-80
2022/01/16 06:26:00;;;;;;;27.73;16.10;;;;;;;-4.67;100.00;96163.47;6133549;23;20186;-80
2022/01/16 06:28:27;;;;;;;25.50;15.37;;;;;;;-4.70;100.00;96156.75;6132262;23;20176;-81
2022/01/16 06:30:52;;;;;;;24.77;16.50;;;;;;;-4.70;100.00;96163.53;6107345;23;20156;-83
2022/01/16 06:33:17;;;;;;;26.73;17.43;;;;;;;-4.76;100.00;96162.00;6108870;23;20163;-79
2022/01/16 06:35:43;;;;;;;29.83;18.23;;;;;;;-4.73;100.00;96166.97;6084634;23;20159;-80
2022/01/16 06:38:08;;;;;;;28.80;18.00;;;;;;;-4.73;100.00;96176.28;6109852;23;20561;-80
2022/01/16 06:40:33;;;;;;;30.73;17.57;;;;;;;-4.66;100.00;96176.09;6084381;23;20160;-80
2022/01/16 06:42:59;;;;;;;27.43;17.20;;;;;;;-4.63;100.00;96183.59;6083755;23;20270;-80
2022/01/16 06:45:24;;;;;;;29.17;19.90;;;;;;;-4.59;100.00;96187.72;6108030;23;20262;-80
2022/01/16 06:47:51;;;;;;;27.83;17.73;;;;;;;-4.56;100.00;96194.41;6132625;23;20259;-80
2022/01/16 06:50:17;;;;;;;31.03;18.53;;;;;;;-4.53;100.00;96196.03;6107669;23;20156;-81
2022/01/16 06:52:42;;;;;;;30.73;18.77;;;;;;;-4.51;100.00;96199.34;6081537;23;20164;-79
2022/01/16 06:55:08;;;;;;;30.47;19.03;;;;;;;-4.52;100.00;96197.69;6084361;23;20160;-80
2022/01/16 06:57:33;;;;;;;32.67;19.97;;;;;;;-4.52;100.00;96197.69;6108334;23;20191;-79
2022/01/16 06:59:58;;;;;;;26.90;17.80;;;;;;;-4.57;100.00;96200.34;6083915;23;20542;-80
2022/01/16 07:02:24;;;;;;;26.63;16.57;;;;;;;-4.58;100.00;96197.00;6083703;23;20148;-82
2022/01/16 07:04:52;;;;;;;26.57;17.77;;;;;;;-4.58;100.00;96206.28;6107849;23;20171;-79
2022/01/16 07:07:18;;;;;;;27.80;18.27;;;;;;;-4.52;100.00;96207.81;6083512;23;20179;-82
2022/01/16 07:09:43;;;;;;;31.13;18.80;;;;;;;-4.44;100.00;96196.59;6087435;23;20229;-82
2022/01/16 07:12:09;;;;;;;45.87;25.03;;;;;;;-4.05;100.00;96196.38;6111827;23;20162;-81
2022/01/16 07:14:34;;;;;;;40.47;22.63;;;;;;;-3.98;100.00;96202.91;6087720;23;20227;-81
2022/01/16 07:16:59;;;;;;;46.10;25.13;;;;;;;-3.75;100.00;96192.94;6111528;23;20274;-80
2022/01/16 07:19:25;;;;;;;47.60;25.93;;;;;;;-3.62;100.00;96201.03;6088821;23;20597;-81
2022/01/16 07:21:50;;;;;;;52.50;26.00;;;;;;;-3.53;100.00;96197.38;6087103;23;20167;-79
2022/01/16 07:24:16;;;;;;;49.00;25.73;;;;;;;-3.46;100.00;96203.91;6085085;23;20160;-80
2022/01/16 07:26:45;;;;;;;48.10;26.57;;;;;;;-3.43;100.00;96212.28;6107383;23;20184;-80
2022/01/16 07:29:10;;;;;;;49.47;27.70;;;;;;;-3.35;100.00;96226.47;6104411;23;20200;-79
2022/01/16 07:31:38;;;;;;;48.70;27.53;;;;;;;-3.30;100.00;96215.25;6105365;23;20164;-81
2022/01/16 07:34:04;;;;;;;47.77;27.77;;;;;;;-3.28;100.00;96228.75;6105113;23;20175;-81
2022/01/16 07:36:30;;;;;;;49.77;26.77;;;;;;;-3.24;100.00;96230.31;6103982;23;20626;-81
2022/01/16 07:38:55;;;;;;;53.00;28.00;;;;;;;-3.16;100.00;96242.78;6104545;23;20247;-80
2022/01/16 07:41:20;;;;;;;43.03;25.10;;;;;;;-3.14;100.00;96263.88;6104185;23;20187;-80
2022/01/16 07:43:46;;;;;;;35.60;21.67;;;;;;;-3.24;100.00;96268.44;6081327;23;20159;-81
2022/01/16 07:46:11;;;;;;;32.83;21.70;;;;;;;-3.25;100.00;96266.78;6132021;23;20704;-82
2022/01/16 07:48:36;;;;;;;39.87;23.57;;;;;;;-3.27;100.00;96265.13;6080750;23;20179;-81
2022/01/16 07:51:02;;;;;;;39.97;22.93;;;;;;;-3.25;100.00;96279.47;6080616;23;20206;-81
2022/01/16 07:53:27;;;;;;;38.63;23.70;;;;;;;-3.28;100.00;96294.78;6103553;23;20674;-80
2022/01/16 07:55:52;;;;;;;39.97;23.47;;;;;;;-3.28;100.00;96293.94;6080764;23;20167;-79
2022/01/16 07:58:18;;;;;;;38.13;23.03;;;;;;;-3.32;100.00;96294.94;6105407;23;20241;-82
2022/01/16 08:00:47;;;;;;;40.87;24.73;;;;;;;-3.21;100.00;96301.34;6104622;23;20613;-81
2022/01/16 08:03:12;;;;;;;42.97;25.03;;;;;;;-3.28;100.00;96299.88;6080235;23;20186;-81
2022/01/16 08:05:37;;;;;;;46.83;25.50;;;;;;;-3.15;100.00;96296.09;6081499;23;20634;-82
2022/01/16 08:08:03;;;;;;;48.13;25.40;;;;;;;-3.09;100.00;96290.00;6081220;23;20184;-80
2022/01/16 08:10:29;;;;;;;45.40;23.67;;;;;;;-2.98;100.00;96293.03;6104570;23;20218;-79
2022/01/16 08:12:54;;;;;;;41.97;23.70;;;;;;;-2.96;100.00;96285.34;6127280;23;20156;-80
2022/01/16 08:15:19;;;;;;;50.03;26.20;;;;;;;-2.91;100.00;96284.34;6077997;23;20152;-80
2022/01/16 08:17:45;;;;;;;48.53;26.40;;;;;;;-2.79;100.00;96292.44;6102207;23;20199;-81
2022/01/16 08:20:10;;;;;;;48.10;27.10;;;;;;;-2.77;100.00;96278.81;6101890;23;20152;-80
2022/01/16 08:22:36;;;;;;;50.43;27.47;;;;;;;-2.66;100.00;96289.44;6100837;23;20159;-79
2022/01/16 08:25:04;;;;;;;53.10;27.17;;;;;;;-2.69;100.00;96289.56;6102975;23;20160;-82
2022/01/16 08:27:29;;;;;;;52.87;28.30;;;;;;;-2.59;100.00;96301.09;6107564;23;20191;-82
2022/01/16 08:29:54;;;;;;;51.77;28.47;;;;;;;-2.66;100.00;96297.06;6103585;23;20208;-81
2022/01/16 08:32:20;;;;;;;53.90;29.07;;;;;;;-2.53;100.00;96301.78;6102512;23;20168;-80
2022/01/16 08:34:45;;;;;;;52.63;28.63;;;;;;;-2.48;100.00;96302.44;6103598;23;20184;-80
2022/01/16 08:37:10;;;;;;;52.47;29.70;;;;;;;-2.42;100.00;96310.72;6082810;23;20640;-81
2022/01/16 08:39:35;;;;;;;56.30;28.73;;;;;;;-2.29;100.00;96301.81;6107912;23;20595;-81
2022/01/16 08:42:01;;;;;;;62.67;30.70;;;;;;;-2.35;100.00;96311.34;6107285;23;20159;-82
2022/01/16 08:44:26;;;;;;;60.53;31.60;;;;;;;-2.22;100.00;96309.22;6105484;23;20156;-80
2022/01/16 08:46:52;;;;;;;61.27;30.07;;;;;;;-2.12;100.00;96316.50;6104685;23;20191;-81
2022/01/16 08:49:17;;;;;;;53.97;29.17;;;;;;;-2.04;100.00;96326.41;6079580;23;20176;-80
2022/01/16 08:51:42;;;;;;;54.57;28.43;;;;;;;-1.93;100.00;96333.69;6080575;23;20169;-81
2022/01/16 08:54:08;;;;;;;57.40;29.43;;;;;;;-1.91;100.00;96324.28;6105903;23;20167;-81
2022/01/16 08:56:33;;;;;;;58.73;31.43;;;;;;;-1.88;100.00;96330.09;6104402;23;20164;-80
2022/01/16 08:58:58;;;;;;;57.73;29.60;;;;;;;-1.83;100.00;96333.31;6103215;23;20191;-81
2022/01/16 09:01:23;;;;;;;60.40;30.10;;;;;;;-1.77;100.00;96329.69;6103420;23;20164;-81
2022/01/16 09:03:49;;;;;;;58.30;29.57;;;;;;;-1.65;100.00;96328.47;6104567;23;20161;-79
2022/01/16 09:06:16;;;;;;;50.03;27.57;;;;;;;-1.62;100.00;96347.00;6080530;23;20180;-81
2022/01/16 09:08:41;;;;;;;57.23;28.87;;;;;;;-1.60;100.00;96347.75;6080348;23;20207;-81
2022/01/16 09:11:07;;;;;;;60.50;28.83;;;;;;;-1.62;100.00;96338.53;6080609;23;20164;-81
2022/01/16 09:13:32;;;;;;;53.00;27.30;;;;;;;-1.54;100.00;96341.63;6080261;23;20185;-80
2022/01/16 09:15:58;;;;;;;52.37;27.27;;;;;;;-1.53;100.00;96346.66;6081746;23;20161;-81
2022/01/16 09:18:23;;;;;;;57.83;31.13;;;;;;;-1.48;100.00;96360.06;6104897;23;20176;-81
2022/01/16 09:20:48;;;;;;;57.10;28.23;;;;;;;-1.44;100.00;96350.59;6104170;23;20672;-79
2022/01/16 09:23:14;;;;;;;54.43;28.33;;;;;;;-1.34;100.00;96356.19;6102366;23;20158;-81
2022/01/16 09:25:39;;;;;;;58.87;29.63;;;;;;;-1.25;100.00;96360.94;6079687;23;20181;-80
2022/01/16 09:28:05;;;;;;;58.27;28.40;;;;;;;-1.24;100.00;96357.50;6103371;23;20172;-81
2022/01/16 09:30:31;;;;;;;49.97;29.90;;;;;;;-1.10;100.00;96352.75;6078304;23;20607;-82
2022/01/16 09:32:57;;;;;;;59.07;30.17;;;;;;;-1.10;100.00;96350.19;6101598;23;20153;-81
2022/01/16 09:35:23;;;;;;;52.70;28.30;;;;;;;-1.10;100.00;96364.66;6101834;23;20161;-80
2022/01/16 09:37:49;;;;;;;56.47;28.47;;;;;;;-1.00;100.00;96356.59;6100865;23;20182;-80
2022/01/16 09:40:16;;;;;;;49.97;27.53;;;;;;;-1.09;100.00;96372.25;6101096;23;20158;-79
2022/01/16 09:42:41;;;;;;;48.27;26.53;;;;;;;-1.05;100.00;96380.63;6101004;23;20586;-80
2022/01/16 09:45:09;;;;;;;51.97;27.53;;;;;;;-1.05;100.00;96388.28;6125547;23;20176;-79
2022/01/16 09:47:34;;;;;;;48.67;25.10;;;;;;;-0.89;100.00;96395.28;6100746;23;20191;-80
2022/01/16 09:50:00;;;;;;;49.50;27.07;;;;;;;-0.92;100.00;96397.94;6100791;23;20171;-79
2022/01/16 09:52:25;;;;;;;49.53;27.73;;;;;;;-0.97;100.00;96399.00;6076451;23;20496;-80
2022/01/16 09:54:51;;;;;;;49.17;29.40;;;;;;;-0.85;100.00;96390.91;6101502;23;20207;-80
2022/01/16 09:57:16;;;;;;;54.33;29.70;;;;;;;-0.76;100.00;96384.63;6100843;23;20192;-82
2022/01/16 09:59:45;;;;;;;78.47;42.90;;;;;;;-0.61;100.00;96384.88;6076604;23;20651;-80
2022/01/16 10:02:10;;;;;;;52.80;32.27;;;;;;;-0.51;99.05;96385.34;6100820;23;20154;-80
2022/01/16 10:04:41;;;;;;;48.83;28.93;;;;;;;-0.61;99.46;96387.41;6077533;23;20164;-81
2022/01/16 10:07:14;;;;;;;44.80;26.23;;;;;;;-0.64;99.12;96389.25;6101164;23;20249;-80
2022/01/16 10:09:42;;;;;;;47.80;25.97;;;;;;;-0.53;99.20;96393.91;6101661;23;20217;-81
2022/01/16 10:12:16;;;;;;;45.43;25.47;;;;;;;-0.62;99.36;96392.56;6076552;23;20194;-82
2022/01/16 10:14:49;;;;;;;44.70;24.53;;;;;;;-0.57;99.20;96388.13;6103159;23;20222;-80
2022/01/16 10:17:19;;;;;;;45.13;25.57;;;;;;;-0.54;99.05;96397.38;6103145;23;20183;-82
2022/01/16 10:19:46;;;;;;;46.27;25.17;;;;;;;-0.52;99.19;96399.00;6101281;23;20153;-83
2022/01/16 10:22:13;;;;;;;46.17;24.53;;;;;;;-0.52;99.30;96391.34;6100797;23;20166;-79
2022/01/16 10:24:39;;;;;;;45.47;25.17;;;;;;;-0.43;99.18;96397.81;6102550;23;20162;-79
2022/01/16 10:27:08;;;;;;;39.60;23.63;;;;;;;-0.30;99.20;96391.31;6100501;23;20185;-80
2022/01/16 10:29:51;;;;;;;42.67;25.20;;;;;;;-0.30;98.73;96394.69;6125550;23;20547;-81
2022/01/16 10:32:21;;;;;;;40.80;23.37;;;;;;;-0.23;98.09;96399.56;6078271;23;20177;-79
2022/01/16 10:34:54;;;;;;;37.90;23.13;;;;;;;-0.17;97.88;96404.44;6101323;23;20157;-77
2022/01/16 10:37:30;;;;;;;42.93;24.30;;;;;;;-0.22;97.41;96404.59;6076717;23;20652;-79
2022/01/16 10:40:01;;;;;;;35.93;21.23;;;;;;;-0.40;97.37;96411.25;6126888;23;20182;-79
2022/01/16 10:42:29;;;;;;;37.40;21.20;;;;;;;-0.19;96.84;96419.78;6100188;23;20157;-79
2022/01/16 10:44:59;;;;;;;45.17;24.10;;;;;;;-0.15;96.62;96426.44;6100830;23;20159;-81
2022/01/16 10:47:30;;;;;;;44.53;25.33;;;;;;;-0.15;97.15;96423.88;6100359;23;20187;-76
2022/01/16 10:50:02;;;;;;;39.60;22.70;;;;;;;-0.10;96.45;96431.34;6099132;23;20149;-81
2022/01/16 10:52:27;;;;;;;35.77;20.23;;;;;;;-0.11;96.69;96439.91;6099720;23;20180;-80
2022/01/16 10:54:53;;;;;;;39.90;22.83;;;;;;;-0.20;97.03;96437.72;6075980;23;20170;-80
2022/01/16 10:57:19;;;;;;;41.00;22.57;;;;;;;-0.26;96.83;96437.97;6071484;23;20732;-80
2022/01/16 10:59:46;;;;;;;43.37;23.70;;;;;;;-0.35;97.61;96442.53;6121978;23;20164;-80
2022/01/16 11:02:12;;;;;;;45.27;27.57;;;;;;;-0.38;98.11;96436.72;6095570;23;20527;-81
2022/01/16 11:04:37;;;;;;;44.47;24.07;;;;;;;-0.46;98.72;96431.06;6071675;23;20170;-81
2022/01/16 11:07:03;;;;;;;43.07;23.00;;;;;;;-0.54;99.29;96435.63;6095792;23;20952;-82
2022/01/16 11:09:29;;;;;;;42.40;24.53;;;;;;;-0.53;99.19;96437.28;6096002;23;20194;-83
2022/01/16 11:11:59;;;;;;;41.30;23.13;;;;;;;-0.52;99.69;96434.72;6119763;23;20628;-79
2022/01/16 11:14:29;;;;;;;49.53;26.23;;;;;;;-0.63;100.00;96452.13;6098098;23;20234;-81
2022/01/16 11:16:55;;;;;;;46.20;25.67;;;;;;;-0.58;100.00;96447.69;6098655;23;20242;-81
2022/01/16 11:35:02;;;;;;;52.33;25.53;;;;;;;-1.01;100.00;96484.13;6154002;23;20185;-81
2022/01/16 11:37:27;;;;;;;57.80;24.57;;;;;;;-1.18;100.00;96488.09;6129559;23;20195;-79
2022/01/16 12:06:01;;;;;;;;;;;;;;;;;;;;;
2022/01/16 12:23:21;;;;;;;34.83;19.23;;;;;;;-0.26;98.74;96461.78;6093451;23;20186;-83
2022/01/16 12:34:12;;;;;;;29.33;17.43;;;;;;;-0.01;96.67;96470.09;6008915;23;20679;-81
2022/01/16 12:40:16;;;;;;;31.43;18.07;;;;;;;-0.06;96.58;96478.84;6151595;23;20201;-82
2022/01/16 12:46:39;;;;;;;35.07;19.00;;;;;;;-0.14;96.82;96484.25;6094762;23;20726;-80
2022/01/16 12:49:16;;;;;;;30.87;17.47;;;;;;;-0.20;96.49;96483.66;6139154;23;20220;-81
2022/01/16 12:51:54;;;;;;;;;;;;;;;;;;;;;
2022/01/16 12:54:57;;;;;;;29.07;15.30;;;;;;;-0.12;96.11;96490.13;6155551;23;20213;-81
2022/01/16 12:58:19;;;;;;;28.67;15.17;;;;;;;-0.15;96.01;96487.72;6127067;23;20185;-81
2022/01/16 14:43:24;;;;;;;14.37;9.70;;;;;;;0.26;90.10;96531.19;6115124;23;20210;-82
2022/01/16 15:17:08;;;;;;;12.00;7.20;;;;;;;0.53;88.45;96545.44;5953445;24;20199;-80
2022/01/16 15:26:13;;;;;;;9.90;6.63;;;;;;;0.44;88.75;96543.28;6155758;23;20224;-80
2022/01/16 15:35:30;;;;;;;11.90;7.63;;;;;;;0.39;89.12;96557.94;5950962;24;20181;-79
2022/01/16 15:37:56;;;;;;;13.33;8.77;;;;;;;0.38;89.10;96565.69;5927958;24;20187;-78
2022/01/16 15:40:21;;;;;;;10.77;7.67;;;;;;;0.38;89.15;96561.41;5929381;24;20167;-80
2022/01/16 15:42:47;;;;;;;9.07;7.40;;;;;;;0.36;89.42;96557.25;5928194;24;20174;-81
2022/01/16 15:45:14;;;;;;;8.97;6.27;;;;;;;0.43;88.89;96566.31;5905792;24;20167;-81
2022/01/16 15:47:43;;;;;;;10.13;6.57;;;;;;;0.48;88.65;96572.06;5906128;24;20191;-81
2022/01/16 15:50:09;;;;;;;11.73;7.33;;;;;;;0.45;88.63;96567.09;5930079;24;20167;-81
2022/01/16 15:52:35;;;;;;;12.63;7.90;;;;;;;0.48;88.23;96561.84;5928245;24;20192;-80
2022/01/16 15:55:00;;;;;;;7.80;6.50;;;;;;;0.46;88.55;96573.88;5950205;24;20235;-81
2022/01/16 15:57:26;;;;;;;7.60;5.67;;;;;;;0.44;88.49;96579.03;5927518;24;20209;-82
2022/01/16 15:59:54;;;;;;;9.60;7.13;;;;;;;0.40;88.83;96584.31;5987983;23;20163;-85
2022/01/16 16:02:19;;;;;;;9.60;6.80;;;;;;;0.43;88.91;96585.03;6018537;23;20172;-81
2022/01/16 16:04:45;;;;;;;17.80;9.00;;;;;;;0.41;88.71;96591.94;6018337;23;20607;-79
2022/01/16 16:07:10;;;;;;;9.33;6.53;;;;;;;0.42;88.60;96583.38;5994835;23;20617;-84
2022/01/16 16:09:37;;;;;;;11.23;7.50;;;;;;;0.44;88.57;96588.41;5990304;23;20171;-82
2022/01/16 16:12:06;;;;;;;8.87;6.43;;;;;;;0.46;88.74;96587.47;6027124;23;20161;-82
2022/01/16 16:14:31;;;;;;;10.00;6.43;;;;;;;0.42;88.58;96596.13;6099272;23;20187;-82
2022/01/16 16:16:58;;;;;;;18.57;11.77;;;;;;;0.49;88.17;96606.97;6075055;23;20167;-82
2022/01/16 16:19:25;;;;;;;17.93;9.97;;;;;;;0.46;88.43;96613.03;6077174;23;20211;-81
2022/01/16 16:21:50;;;;;;;18.67;12.50;;;;;;;0.47;88.94;96618.97;6076386;23;20167;-81
2022/01/16 16:24:15;;;;;;;18.70;13.23;;;;;;;0.45;88.57;96628.44;6101478;23;20184;-82
2022/01/16 16:26:41;;;;;;;15.33;10.07;;;;;;;0.45;88.69;96631.00;6124737;23;20517;-81
2022/01/16 16:29:06;;;;;;;21.07;13.77;;;;;;;0.43;88.72;96642.97;6076901;23;20196;-81
2022/01/16 16:31:31;;;;;;;19.27;14.90;;;;;;;0.38;89.34;96645.72;6099793;23;20190;-82
2022/01/16 16:33:57;;;;;;;18.90;12.07;;;;;;;0.37;89.40;96663.66;6101122;23;20171;-81
2022/01/16 16:36:23;;;;;;;14.37;10.47;;;;;;;0.26;89.70;96654.66;6125449;23;20140;-80
2022/01/16 16:38:49;;;;;;;14.60;9.87;;;;;;;0.21;90.10;96663.41;6100922;23;20182;-80
2022/01/16 16:41:15;;;;;;;15.10;10.83;;;;;;;0.19;90.09;96667.75;6075542;23;20186;-82
2022/01/16 16:43:40;;;;;;;15.97;10.63;;;;;;;0.13;90.50;96663.69;6100623;23;20166;-81
2022/01/16 16:46:05;;;;;;;15.70;10.37;;;;;;;0.12;90.81;96668.84;6100861;23;20187;-81
2022/01/16 16:48:31;;;;;;;16.83;10.13;;;;;;;0.08;91.42;96677.50;6100660;23;20183;-80
2022/01/16 16:50:56;;;;;;;15.00;10.53;;;;;;;0.06;91.83;96680.13;6123882;23;20757;-80
2022/01/16 16:53:21;;;;;;;16.70;10.87;;;;;;;0.03;92.11;96676.88;6100758;23;20218;-81
2022/01/16 16:55:47;;;;;;;15.23;9.87;;;;;;;0.01;92.39;96670.97;6126511;23;20178;-80
2022/01/16 16:58:12;;;;;;;17.70;11.13;;;;;;;-0.02;92.69;96662.53;6127672;23;20175;-83
2022/01/16 17:00:37;;;;;;;16.10;11.23;;;;;;;-0.02;93.05;96665.06;6126608;23;20159;-81
2022/01/16 17:03:03;;;;;;;14.80;10.13;;;;;;;-0.04;93.13;96666.88;6100103;23;20163;-79
2022/01/16 17:05:28;;;;;;;20.57;13.67;;;;;;;-0.07;93.38;96671.25;6100612;23;20196;-83
2022/01/16 17:07:53;;;;;;;19.93;13.00;;;;;;;-0.08;93.42;96670.44;6124637;23;20183;-82
2022/01/16 17:10:19;;;;;;;25.23;15.80;;;;;;;-0.10;94.02;96676.47;6125206;23;20230;-81
2022/01/16 17:12:44;;;;;;;27.70;17.27;;;;;;;-0.11;94.24;96674.78;6100420;23;20163;-81
2022/01/16 17:15:10;;;;;;;27.17;17.13;;;;;;;-0.11;94.63;96670.53;6125148;23;20561;-83
2022/01/16 17:17:35;;;;;;;21.47;14.80;;;;;;;-0.17;95.39;96665.66;6076289;23;20183;-80
2022/01/16 17:20:01;;;;;;;21.80;15.77;;;;;;;-0.17;95.23;96670.75;6076383;23;20188;-81
2022/01/16 17:22:27;;;;;;;24.83;17.17;;;;;;;-0.18;95.83;96675.91;6099989;23;20190;-81
2022/01/16 17:24:57;;;;;;;25.50;17.23;;;;;;;-0.20;96.14;96678.50;6125624;23;20819;-81
2022/01/16 17:27:22;;;;;;;23.77;15.87;;;;;;;-0.21;96.04;96692.16;6101852;23;20240;-81
2022/01/16 17:29:48;;;;;;;25.53;16.00;;;;;;;-0.22;96.50;96687.13;6076569;23;20171;-81
2022/01/16 17:32:14;;;;;;;30.53;18.33;;;;;;;-0.18;96.39;96688.66;6099982;23;20174;-82
2022/01/16 17:34:40;;;;;;;28.00;18.53;;;;;;;-0.20;96.59;96688.72;6100365;23;20186;-81
2022/01/16 17:37:05;;;;;;;28.63;18.53;;;;;;;-0.21;97.10;96684.50;6100635;23;20158;-81
2022/01/16 17:39:32;;;;;;;29.00;19.43;;;;;;;-0.23;96.92;96700.78;6076521;23;20167;-80
2022/01/16 17:42:00;;;;;;;34.90;22.07;;;;;;;-0.22;96.79;96698.16;6099941;23;20174;-82
2022/01/16 17:44:25;;;;;;;30.40;21.40;;;;;;;-0.23;97.04;96698.22;6077228;23;20163;-79
2022/01/16 17:46:54;;;;;;;30.77;21.50;;;;;;;-0.22;97.42;96697.34;6124556;23;20264;-80
2022/01/16 17:49:19;;;;;;;26.63;17.63;;;;;;;-0.22;97.46;96697.34;6099780;23;20559;-82
2022/01/16 17:51:44;;;;;;;20.63;14.37;;;;;;;-0.13;97.03;96702.13;6123698;23;20162;-81
2022/01/16 17:54:09;;;;;;;17.57;11.83;;;;;;;-0.12;97.03;96701.22;6124261;23;20163;-81
2022/01/16 17:56:36;;;;;;;17.73;11.17;;;;;;;-0.13;96.89;96702.94;6124486;23;20232;-82
2022/01/16 17:59:01;;;;;;;15.07;9.83;;;;;;;-0.04;97.09;96694.13;6123608;23;20229;-81
2022/01/16 18:01:27;;;;;;;14.63;9.77;;;;;;;-0.05;96.35;96702.69;6099107;23;20590;-82